Time,TemperatureF,DewpointF,PressureIn,WindDirection,WindDirectionDegrees,WindSpeedMPH,WindSpeedGustMPH,Humidity,HourlyPrecipIn,Conditions,Clouds,dailyrainin,SolarRadiationWatts/m^2,SoftwareType,DateUTC
2013-05-17 00:02:00,40.0,39.0,-100.00,NE,34,0.0,3.0,95,0.00,,,0.23,0.000000,,2013-05-17 06:02:00,
2013-05-17 00:11:00,40.0,39.0,-100.00,NE,34,0.0,3.0,95,0.00,,,0.23,0.000000,,2013-05-17 06:11:00,
2013-05-17 00:21:00,40.0,39.0,-100.00,NE,34,0.0,3.0,95,0.00,,,0.23,0.000000,,2013-05-17 06:21:00,
2013-05-17 00:32:00,40.0,39.0,-100.00,NE,34,0.0,3.0,95,0.00,,,0.23,0.000000,,2013-05-17 06:32:00,
2013-05-17 01:02:00,38.0,37.0,-100.00,ENE,66,0.0,3.0,96,0.00,,,0.20,0.000000,,2013-05-17 07:02:00,
2013-05-17 01:11:00,38.0,37.0,-100.00,ENE,66,0.0,3.0,96,0.00,,,0.20,0.000000,,2013-05-17 07:11:00,
2013-05-17 01:21:00,38.0,37.0,-100.00,ENE,66,0.0,3.0,96,0.00,,,0.20,0.000000,,2013-05-17 07:21:00,
2013-05-17 01:32:00,38.0,37.0,-100.00,ENE,66,0.0,3.0,96,0.00,,,0.20,0.000000,,2013-05-17 07:32:00,
2013-05-17 02:02:00,38.0,37.0,-100.00,NNE,19,1.0,2.0,96,0.00,,,0.20,0.000000,,2013-05-17 08:02:00,
2013-05-17 02:12:00,38.0,37.0,-100.00,NNE,19,1.0,2.0,96,0.00,,,0.20,0.000000,,2013-05-17 08:12:00,
2013-05-17 02:23:00,38.0,37.0,-100.00,NNE,19,1.0,2.0,96,0.00,,,0.20,0.000000,,2013-05-17 08:23:00,
2013-05-17 02:33:00,38.0,37.0,-100.00,NNE,19,1.0,2.0,96,0.00,,,0.20,0.000000,,2013-05-17 08:33:00,
2013-05-17 03:02:00,38.0,37.0,-100.00,NNE,18,1.0,3.0,97,0.00,,,0.20,0.000000,,2013-05-17 09:02:00,
2013-05-17 03:12:00,38.0,37.0,-100.00,NNE,18,1.0,3.0,97,0.00,,,0.20,0.000000,,2013-05-17 09:12:00,
2013-05-17 03:22:00,38.0,37.0,-100.00,NNE,18,1.0,3.0,97,0.00,,,0.20,0.000000,,2013-05-17 09:22:00,
2013-05-17 03:33:00,38.0,37.0,-100.00,NNE,18,1.0,3.0,97,0.00,,,0.20,0.000000,,2013-05-17 09:33:00,
2013-05-17 04:03:00,38.0,37.0,-100.00,North,352,1.0,3.0,97,0.00,,,0.20,0.000000,,2013-05-17 10:03:00,
2013-05-17 04:12:00,38.0,37.0,-100.00,North,352,1.0,3.0,97,0.00,,,0.20,0.000000,,2013-05-17 10:12:00,
2013-05-17 04:23:00,38.0,37.0,-100.00,North,352,1.0,3.0,97,0.00,,,0.20,0.000000,,2013-05-17 10:23:00,
2013-05-17 04:33:00,38.0,37.0,-100.00,North,352,1.0,3.0,97,0.00,,,0.20,0.000000,,2013-05-17 10:33:00,
2013-05-17 05:02:00,40.0,39.0,-100.00,NNE,14,2.0,4.0,98,0.00,,,0.20,0.000000,,2013-05-17 11:02:00,
2013-05-17 05:12:00,40.0,39.0,-100.00,NNE,14,2.0,4.0,98,0.00,,,0.20,0.000000,,2013-05-17 11:12:00,
2013-05-17 05:23:00,40.0,39.0,-100.00,NNE,14,2.0,4.0,98,0.00,,,0.20,0.000000,,2013-05-17 11:23:00,
2013-05-17 05:34:00,40.0,39.0,-100.00,NNE,14,2.0,4.0,98,0.00,,,0.20,0.000000,,2013-05-17 11:34:00,
2013-05-17 06:03:00,41.0,41.0,-100.00,SE,125,1.0,4.0,99,0.00,,,0.20,1.000000,,2013-05-17 12:03:00,
2013-05-17 06:12:00,41.0,41.0,-100.00,SE,125,1.0,4.0,99,0.00,,,0.20,1.000000,,2013-05-17 12:12:00,
2013-05-17 06:23:00,41.0,41.0,-100.00,SE,125,1.0,4.0,99,0.00,,,0.20,1.000000,,2013-05-17 12:23:00,
2013-05-17 06:32:00,41.0,41.0,-100.00,SE,125,1.0,4.0,99,0.00,,,0.20,1.000000,,2013-05-17 12:32:00,
2013-05-17 07:03:00,45.0,44.0,-100.00,NNE,25,0.0,12.0,95,0.01,,,0.21,13.000000,,2013-05-17 13:03:00,
2013-05-17 07:12:00,45.0,44.0,-100.00,NNE,25,0.0,12.0,95,0.01,,,0.21,13.000000,,2013-05-17 13:12:00,
2013-05-17 07:23:00,45.0,44.0,-100.00,NNE,25,0.0,12.0,95,0.01,,,0.21,13.000000,,2013-05-17 13:23:00,
2013-05-17 07:33:00,45.0,44.0,-100.00,NNE,25,0.0,12.0,95,0.01,,,0.21,13.000000,,2013-05-17 13:33:00,
2013-05-17 08:02:00,48.0,47.0,-100.00,ESE,102,0.0,2.0,98,0.00,,,0.21,42.000000,,2013-05-17 14:02:00,
2013-05-17 08:13:00,48.0,47.0,-100.00,ESE,102,0.0,2.0,98,0.00,,,0.21,42.000000,,2013-05-17 14:13:00,
2013-05-17 08:22:00,48.0,47.0,-100.00,ESE,102,0.0,2.0,98,0.00,,,0.21,42.000000,,2013-05-17 14:22:00,
2013-05-17 08:34:00,48.0,47.0,-100.00,ESE,102,0.0,2.0,98,0.00,,,0.21,42.000000,,2013-05-17 14:34:00,
2013-05-17 08:36:00,61.0,47.0,-100.00,SSW,207,0.0,3.0,61,0.00,,,0.21,171.000000,,2013-05-17 14:36:00,
2013-05-17 09:03:00,61.0,47.0,-100.00,SSW,207,0.0,3.0,61,0.00,,,0.21,171.000000,,2013-05-17 15:03:00,
2013-05-17 09:36:00,65.0,44.0,-100.00,SSE,167,4.0,10.0,46,0.00,,,0.21,481.000000,,2013-05-17 15:36:00,
2013-05-17 10:07:00,65.0,44.0,-100.00,SSE,167,4.0,10.0,46,0.00,,,0.21,481.000000,,2013-05-17 16:07:00,
2013-05-17 10:13:00,65.0,44.0,-100.00,SSE,167,4.0,10.0,46,0.00,,,0.21,481.000000,,2013-05-17 16:13:00,
2013-05-17 10:26:00,65.0,44.0,-100.00,SSE,167,4.0,10.0,46,0.00,,,0.21,481.000000,,2013-05-17 16:26:00,
2013-05-17 10:36:00,67.0,-99.9,-100.00,SSE,158,7.0,13.0,43,0.00,,,0.21,718.000000,,2013-05-17 16:36:00,
2013-05-17 11:08:00,67.0,44.0,-100.00,SSE,158,7.0,13.0,43,0.00,,,0.21,718.000000,,2013-05-17 17:08:00,
2013-05-17 11:19:00,67.0,44.0,-100.00,SSE,158,7.0,13.0,43,0.00,,,0.21,718.000000,,2013-05-17 17:19:00,
2013-05-17 11:30:00,67.0,44.0,-100.00,SSE,158,7.0,13.0,43,0.00,,,0.21,718.000000,,2013-05-17 17:30:00,
2013-05-17 11:36:00,67.0,-99.9,-100.00,South,182,4.0,13.0,38,0.00,,,0.21,482.000000,,2013-05-17 17:36:00,
2013-05-17 12:09:00,67.0,41.0,-100.00,South,182,4.0,13.0,38,0.00,,,0.21,482.000000,,2013-05-17 18:09:00,
2013-05-17 12:20:00,67.0,41.0,-100.00,South,182,4.0,13.0,38,0.00,,,0.21,482.000000,,2013-05-17 18:20:00,
2013-05-17 12:30:00,67.0,41.0,-100.00,South,182,4.0,13.0,38,0.00,,,0.21,482.000000,,2013-05-17 18:30:00,
2013-05-17 13:10:00,71.0,46.0,-100.00,SSE,167,4.0,11.0,41,0.00,,,0.21,658.000000,,2013-05-17 19:10:00,
2013-05-17 13:20:00,71.0,46.0,-100.00,SSE,167,4.0,11.0,41,0.00,,,0.21,658.000000,,2013-05-17 19:20:00,
2013-05-17 13:30:00,71.0,46.0,-100.00,SSE,167,4.0,11.0,41,0.00,,,0.21,658.000000,,2013-05-17 19:30:00,
2013-05-17 13:36:00,69.0,50.0,-100.00,ESE,107,5.0,15.0,50,0.00,,,0.21,858.000000,,2013-05-17 19:36:00,
2013-05-17 14:09:00,69.0,50.0,-100.00,ESE,107,5.0,15.0,50,0.00,,,0.21,858.000000,,2013-05-17 20:09:00,
2013-05-17 14:20:00,69.0,50.0,-100.00,ESE,107,5.0,15.0,50,0.00,,,0.21,858.000000,,2013-05-17 20:20:00,
2013-05-17 14:30:00,69.0,50.0,-100.00,ESE,107,5.0,15.0,50,0.00,,,0.21,858.000000,,2013-05-17 20:30:00,
2013-05-17 14:36:00,69.0,44.0,-100.00,SSE,150,8.0,18.0,41,0.00,,,0.21,917.000000,,2013-05-17 20:36:00,
2013-05-17 15:07:00,69.0,44.0,-100.00,SSE,150,8.0,18.0,41,0.00,,,0.21,917.000000,,2013-05-17 21:07:00,
2013-05-17 15:17:00,69.0,44.0,-100.00,SSE,150,8.0,18.0,41,0.00,,,0.21,917.000000,,2013-05-17 21:17:00,
2013-05-17 15:26:00,69.0,44.0,-100.00,SSE,150,8.0,18.0,41,0.00,,,0.21,917.000000,,2013-05-17 21:26:00,
2013-05-17 15:36:00,66.0,47.0,-100.00,SSE,148,6.0,16.0,50,0.00,,,0.21,649.000000,,2013-05-17 21:36:00,
2013-05-17 16:07:00,66.0,47.0,-100.00,SSE,148,6.0,16.0,50,0.00,,,0.21,649.000000,,2013-05-17 22:07:00,
2013-05-17 16:17:00,66.0,47.0,-100.00,SSE,148,6.0,16.0,50,0.00,,,0.21,649.000000,,2013-05-17 22:17:00,
2013-05-17 16:28:00,66.0,47.0,-100.00,SSE,148,6.0,16.0,50,0.00,,,0.21,649.000000,,2013-05-17 22:28:00,
2013-05-17 16:36:00,66.0,46.0,-100.00,SSE,148,6.0,14.0,48,0.00,,,0.21,305.000000,,2013-05-17 22:36:00,
2013-05-17 17:04:00,66.0,46.0,-100.00,SSE,148,6.0,14.0,48,0.00,,,0.21,305.000000,,2013-05-17 23:04:00,
2013-05-17 17:13:00,66.0,46.0,-100.00,SSE,148,6.0,14.0,48,0.00,,,0.21,305.000000,,2013-05-17 23:13:00,
2013-05-17 17:23:00,66.0,46.0,-100.00,SSE,148,6.0,14.0,48,0.00,,,0.21,305.000000,,2013-05-17 23:23:00,
2013-05-17 18:02:00,66.0,49.0,-100.00,SE,135,7.0,14.0,55,0.00,,,0.21,298.000000,,2013-05-18 00:02:00,
2013-05-17 18:14:00,66.0,49.0,-100.00,SE,135,7.0,14.0,55,0.00,,,0.21,298.000000,,2013-05-18 00:14:00,
2013-05-17 18:22:00,66.0,49.0,-100.00,SE,135,7.0,14.0,55,0.00,,,0.21,298.000000,,2013-05-18 00:22:00,
2013-05-17 18:33:00,66.0,49.0,-100.00,SE,135,7.0,14.0,55,0.00,,,0.21,298.000000,,2013-05-18 00:33:00,
2013-05-17 19:03:00,65.0,50.0,-100.00,ESE,110,5.0,15.0,58,0.00,,,0.13,237.000000,,2013-05-18 01:03:00,
2013-05-17 19:13:00,65.0,50.0,-100.00,ESE,110,5.0,15.0,58,0.00,,,0.13,237.000000,,2013-05-18 01:13:00,
2013-05-17 19:24:00,65.0,50.0,-100.00,ESE,110,5.0,15.0,58,0.00,,,0.13,237.000000,,2013-05-18 01:24:00,
2013-05-17 19:32:00,65.0,50.0,-100.00,ESE,110,5.0,15.0,58,0.00,,,0.13,237.000000,,2013-05-18 01:32:00,
2013-05-17 20:02:00,60.0,50.0,-100.00,ESE,107,5.0,15.0,69,0.00,,,0.13,159.000000,,2013-05-18 02:02:00,
2013-05-17 20:12:00,60.0,50.0,-100.00,ESE,107,5.0,15.0,69,0.00,,,0.13,159.000000,,2013-05-18 02:12:00,
2013-05-17 20:22:00,60.0,50.0,-100.00,ESE,107,5.0,15.0,69,0.00,,,0.13,159.000000,,2013-05-18 02:22:00,
2013-05-17 20:31:00,60.0,50.0,-100.00,ESE,107,5.0,15.0,69,0.00,,,0.13,159.000000,,2013-05-18 02:31:00,
2013-05-17 21:03:00,56.0,49.0,-100.00,East,91,6.0,11.0,78,0.00,,,0.13,10.000000,,2013-05-18 03:03:00,
2013-05-17 21:12:00,56.0,49.0,-100.00,East,91,6.0,11.0,78,0.00,,,0.13,10.000000,,2013-05-18 03:12:00,
2013-05-17 21:22:00,56.0,49.0,-100.00,East,91,6.0,11.0,78,0.00,,,0.13,10.000000,,2013-05-18 03:22:00,
2013-05-17 21:32:00,56.0,49.0,-100.00,East,91,6.0,11.0,78,0.00,,,0.13,10.000000,,2013-05-18 03:32:00,
2013-05-17 22:03:00,55.0,49.0,-100.00,ESE,107,6.0,13.0,79,0.00,,,0.02,0.000000,,2013-05-18 04:03:00,
2013-05-17 22:12:00,55.0,49.0,-100.00,ESE,107,6.0,13.0,79,0.00,,,0.02,0.000000,,2013-05-18 04:12:00,
2013-05-17 22:23:00,55.0,49.0,-100.00,ESE,107,6.0,13.0,79,0.00,,,0.02,0.000000,,2013-05-18 04:23:00,
2013-05-17 22:33:00,55.0,49.0,-100.00,ESE,107,6.0,13.0,79,0.00,,,0.02,0.000000,,2013-05-18 04:33:00,
2013-05-17 23:02:00,54.0,49.0,-100.00,NW,317,5.0,15.0,83,0.00,,,0.01,0.000000,,2013-05-18 05:02:00,
2013-05-17 23:13:00,54.0,49.0,-100.00,NW,317,5.0,15.0,83,0.00,,,0.01,0.000000,,2013-05-18 05:13:00,
2013-05-17 23:22:00,54.0,49.0,-100.00,NW,317,5.0,15.0,83,0.00,,,0.01,0.000000,,2013-05-18 05:22:00,
2013-05-17 23:31:00,54.0,49.0,-100.00,NW,317,5.0,15.0,83,0.00,,,0.01,0.000000,,2013-05-18 05:31:00,